Time;durP1;ratioP1;P1;durP2;ratioP2;P2;SDS_P1;SDS_P2;PMS_P1;PMS_P2;Temp;Humidity;BMP_temperature;BMP_pressure;BME280_temperature;BME280_humidity;BME280_pressure;Samples;Min_cycle;Max_cycle;Signal;HPM_P1;HPM_P2
2022/11/06 00:01:14;;;;;;;5.50;2.80;;;6.30;99.90;;;;;;4991724;28;20050;-72
2022/11/06 00:03:41;;;;;;;7.57;4.05;;;6.30;99.90;;;;;;4990182;28;20037;-73
2022/11/06 00:09:05;;;;;;;10.88;5.53;;;6.30;99.90;;;;;;4990593;28;20038;-73
2022/11/06 00:11:31;;;;;;;6.72;3.63;;;6.30;99.90;;;;;;4990257;28;20034;-72
2022/11/06 00:13:59;;;;;;;13.05;4.50;;;6.30;99.90;;;;;;4989944;28;20161;-72
2022/11/06 00:16:25;;;;;;;9.77;3.72;;;6.30;99.90;;;;;;4991316;28;20513;-73
2022/11/06 00:18:51;;;;;;;7.00;3.65;;;6.30;99.90;;;;;;4991509;28;20165;-72
2022/11/06 00:21:26;;;;;;;8.50;3.30;;;6.30;99.90;;;;;;4990223;28;20033;-72
2022/11/06 00:23:54;;;;;;;6.22;3.20;;;6.30;99.90;;;;;;4991050;28;20045;-73
2022/11/06 00:26:24;;;;;;;10.25;4.47;;;6.20;99.90;;;;;;4990112;28;20509;-72
2022/11/06 00:28:51;;;;;;;9.52;2.90;;;6.30;99.90;;;;;;4973838;28;20060;-73
2022/11/06 00:31:20;;;;;;;18.45;4.38;;;6.20;99.90;;;;;;4990324;28;20054;-73
2022/11/06 00:33:46;;;;;;;9.25;4.38;;;6.20;99.90;;;;;;4991014;28;20061;-72
2022/11/06 00:36:18;;;;;;;6.18;4.30;;;6.20;99.90;;;;;;4990019;28;20034;-73
2022/11/06 00:38:45;;;;;;;16.83;4.80;;;6.20;99.90;;;;;;4990060;28;20030;-72
2022/11/06 00:41:14;;;;;;;23.33;4.25;;;6.20;99.90;;;;;;4991255;28;20046;-73
2022/11/06 00:43:40;;;;;;;6.97;3.60;;;6.20;99.90;;;;;;4989090;28;20088;-72
2022/11/06 00:46:11;;;;;;;7.07;3.80;;;6.20;99.90;;;;;;4989954;28;20399;-72
2022/11/06 00:48:38;;;;;;;14.15;4.25;;;6.20;99.90;;;;;;4991434;28;20489;-72
2022/11/06 00:51:08;;;;;;;7.53;4.10;;;6.10;99.90;;;;;;4990064;28;20470;-72
2022/11/06 00:53:34;;;;;;;11.48;4.13;;;6.20;99.90;;;;;;4989677;28;20482;-72
2022/11/06 00:56:05;;;;;;;8.95;4.70;;;6.20;99.90;;;;;;4989822;28;20057;-72
2022/11/06 00:58:31;;;;;;;21.30;5.85;;;6.20;99.90;;;;;;4991123;28;20127;-73
2022/11/06 01:01:33;;;;;;;13.68;5.68;;;6.10;99.90;;;;;;4991624;28;20070;-72
2022/11/06 01:04:02;;;;;;;14.43;6.30;;;6.10;99.90;;;;;;4994638;28;20026;-73
2022/11/06 01:06:36;;;;;;;9.73;3.90;;;6.10;99.90;;;;;;4993795;28;20033;-72
2022/11/06 01:09:04;;;;;;;6.95;3.85;;;6.10;99.90;;;;;;4994846;28;20457;-73
2022/11/06 01:11:36;;;;;;;7.93;3.10;;;6.10;99.90;;;;;;4994896;28;20066;-72
2022/11/06 01:14:05;;;;;;;9.38;4.70;;;6.10;99.90;;;;;;4993254;28;20390;-72
2022/11/06 01:16:31;;;;;;;9.88;4.40;;;6.10;99.90;;;;;;4993322;28;20034;-72
2022/11/06 01:18:58;;;;;;;8.20;3.38;;;6.20;99.90;;;;;;4993675;28;20040;-72
2022/11/06 01:21:34;;;;;;;8.52;4.80;;;6.20;99.90;;;;;;4993659;28;20486;-72
2022/11/06 01:24:04;;;;;;;6.32;3.70;;;6.20;99.90;;;;;;4994262;28;20438;-72
2022/11/06 01:26:31;;;;;;;11.15;4.03;;;6.20;99.90;;;;;;4993015;28;20030;-72
2022/11/06 01:28:57;;;;;;;13.18;3.53;;;6.20;99.90;;;;;;4977083;28;20045;-73
2022/11/06 01:31:28;;;;;;;8.98;4.13;;;6.20;99.90;;;;;;4993297;28;20114;-72
2022/11/06 01:33:56;;;;;;;6.03;3.53;;;6.20;99.90;;;;;;4992850;28;20030;-72
2022/11/06 01:36:23;;;;;;;8.73;5.32;;;6.20;99.90;;;;;;4976977;28;20672;-72
2022/11/06 01:38:52;;;;;;;17.52;4.53;;;6.20;99.90;;;;;;4993515;28;20053;-72
2022/11/06 01:41:34;;;;;;;19.95;5.00;;;6.10;99.90;;;;;;4994376;28;20038;-72
2022/11/06 01:44:32;;;;;;;5.70;3.67;;;6.20;99.90;;;;;;4993832;28;20459;-72
2022/11/06 01:47:01;;;;;;;8.27;5.50;;;6.10;99.90;;;;;;4994366;28;20181;-72
2022/11/06 01:49:30;;;;;;;8.55;4.63;;;6.10;99.90;;;;;;4993872;28;20066;-72
2022/11/06 01:52:03;;;;;;;4.47;2.67;;;6.10;99.90;;;;;;5008725;28;20120;-73
2022/11/06 01:54:33;;;;;;;8.05;3.60;;;6.00;99.90;;;;;;4993861;28;20030;-72
2022/11/06 01:57:00;;;;;;;5.35;3.30;;;6.00;99.90;;;;;;4993917;28;20033;-72
2022/11/06 01:59:31;;;;;;;6.55;3.72;;;6.00;99.90;;;;;;5009061;28;20029;-73
2022/11/06 02:01:57;;;;;;;6.95;3.78;;;5.90;99.90;;;;;;5008770;28;20038;-73
2022/11/06 02:04:25;;;;;;;4.10;2.83;;;5.90;99.90;;;;;;5006255;28;20496;-72
2022/11/06 02:06:51;;;;;;;8.18;3.47;;;5.90;99.90;;;;;;5003023;28;20027;-72
2022/11/06 02:09:18;;;;;;;6.40;3.60;;;5.90;99.90;;;;;;5011349;28;20096;-72
2022/11/06 02:11:58;;;;;;;7.18;3.78;;;5.90;99.90;;;;;;4999089;28;20035;-73
2022/11/06 02:15:01;;;;;;;8.70;2.58;;;5.90;99.90;;;;;;4992011;28;20030;-72
2022/11/06 02:17:45;;;;;;;6.70;4.35;;;5.80;99.90;;;;;;4982233;28;20399;-73
2022/11/06 02:20:35;;;;;;;9.32;4.32;;;5.90;99.90;;;;;;4993902;28;20039;-72
2022/11/06 02:23:24;;;;;;;5.88;3.22;;;5.90;99.90;;;;;;5006517;23;20049;-74
2022/11/06 02:26:23;;;;;;;8.20;3.65;;;5.90;99.90;;;;;;4996849;28;20045;-74
2022/11/06 02:29:12;;;;;;;3.42;2.47;;;5.90;99.90;;;;;;4992393;28;20092;-75
2022/11/06 02:31:41;;;;;;;14.15;3.72;;;5.80;99.90;;;;;;4992264;28;20034;-74
2022/11/06 02:34:15;;;;;;;6.22;3.45;;;5.90;99.90;;;;;;4991791;28;20030;-74
2022/11/06 02:37:00;;;;;;;5.65;3.15;;;5.90;99.90;;;;;;4992984;28;20033;-74
2022/11/06 02:39:28;;;;;;;4.60;2.70;;;5.90;99.90;;;;;;4976433;28;20057;-74
2022/11/06 02:41:56;;;;;;;5.85;3.40;;;5.80;99.90;;;;;;4991988;28;20035;-74
2022/11/06 02:44:27;;;;;;;15.82;5.75;;;5.80;99.90;;;;;;5007158;28;20133;-74
2022/11/06 02:47:00;;;;;;;;;;;5.80;99.90;;;;;;5008282;28;20038;-74
2022/11/06 02:49:41;;;;;;;8.00;2.75;;;5.70;99.90;;;;;;5007774;28;20008;-74
2022/11/06 02:52:14;;;;;;;5.57;3.10;;;5.70;99.90;;;;;;4993114;28;20038;-74
2022/11/06 02:54:46;;;;;;;9.80;3.58;;;5.70;99.90;;;;;;5007413;28;20062;-74
2022/11/06 02:57:14;;;;;;;;;;;5.70;99.90;;;;;;5008121;28;20509;-74
2022/11/06 03:00:06;;;;;;;4.30;2.85;;;5.70;99.90;;;;;;5007514;28;20262;-75
2022/11/06 03:02:54;;;;;;;4.65;2.70;;;5.80;99.90;;;;;;5007444;28;20460;-74
2022/11/06 03:05:33;;;;;;;6.95;3.15;;;5.90;99.90;;;;;;5006887;28;20158;-74
2022/11/06 03:08:35;;;;;;;4.63;3.33;;;5.90;99.90;;;;;;5007620;28;20027;-74
2022/11/06 03:11:20;;;;;;;6.97;3.40;;;5.80;99.90;;;;;;5007002;28;20109;-74
2022/11/06 03:14:23;;;;;;;10.00;3.97;;;5.80;99.90;;;;;;5006960;28;20110;-74
2022/11/06 03:16:59;;;;;;;12.88;3.78;;;5.70;99.90;;;;;;4992591;28;20042;-74
2022/11/06 03:19:46;;;;;;;6.53;2.65;;;5.70;99.90;;;;;;5007149;28;20486;-74
2022/11/06 03:22:37;;;;;;;5.18;3.03;;;5.70;99.90;;;;;;4992438;28;20113;-74
2022/11/06 03:25:24;;;;;;;5.28;2.92;;;5.60;99.90;;;;;;4992140;28;20041;-74
2022/11/06 03:28:31;;;;;;;6.35;2.70;;;5.50;99.90;;;;;;4992375;28;20121;-74
2022/11/06 03:31:14;;;;;;;5.00;3.00;;;5.50;99.90;;;;;;4991138;28;20039;-74
2022/11/06 03:33:55;;;;;;;6.13;3.22;;;5.40;99.90;;;;;;5006286;28;20092;-73
2022/11/06 03:36:35;;;;;;;15.05;3.45;;;5.40;99.90;;;;;;5006979;28;20033;-73
2022/11/06 03:39:27;;;;;;;4.88;2.53;;;5.40;99.90;;;;;;5006841;28;20034;-74
2022/11/06 03:42:11;;;;;;;4.20;3.08;;;5.50;99.90;;;;;;5006783;28;20034;-73
2022/11/06 03:44:42;;;;;;;6.88;2.55;;;5.50;99.90;;;;;;5006086;28;20363;-73
2022/11/06 03:47:19;;;;;;;6.40;3.08;;;5.50;99.90;;;;;;5006795;28;20517;-73
2022/11/06 03:50:11;;;;;;;9.85;3.47;;;5.50;99.90;;;;;;4990607;28;20057;-74
2022/11/06 03:52:49;;;;;;;7.40;3.33;;;5.50;99.90;;;;;;5005543;28;20101;-73
2022/11/06 03:55:27;;;;;;;2.88;2.08;;;5.50;99.90;;;;;;5006193;28;20106;-73
2022/11/06 03:58:08;;;;;;;6.53;2.75;;;5.40;99.90;;;;;;5006443;28;20050;-74
2022/11/06 04:00:36;;;;;;;;;;;5.40;99.90;;;;;;5006620;28;20030;-74
2022/11/06 04:03:12;;;;;;;5.88;2.63;;;5.40;99.90;;;;;;4990327;28;19910;-74
2022/11/06 04:05:44;;;;;;;9.82;2.30;;;5.40;99.90;;;;;;5005566;28;20155;-73
2022/11/06 04:14:01;;;;;;;3.65;2.58;;;5.30;99.90;;;;;;4991030;28;20478;-73
2022/11/06 04:16:36;;;;;;;5.47;3.15;;;5.40;99.90;;;;;;4991619;28;20038;-73
2022/11/06 04:19:04;;;;;;;9.60;3.50;;;5.40;99.90;;;;;;5006126;28;20026;-73
2022/11/06 04:21:52;;;;;;;4.75;3.28;;;5.40;99.90;;;;;;4991089;28;20113;-73
2022/11/06 04:28:00;;;;;;;10.18;2.53;;;5.40;99.90;;;;;;4991181;28;20045;-73
2022/11/06 04:30:51;;;;;;;7.13;3.50;;;5.40;99.90;;;;;;4991218;28;20037;-73
2022/11/06 04:34:12;;;;;;;11.80;3.83;;;5.30;99.90;;;;;;5003665;28;20034;-74
2022/11/06 04:36:47;;;;;;;5.43;2.95;;;5.40;99.90;;;;;;4988733;28;20496;-74
2022/11/06 04:40:01;;;;;;;5.32;3.80;;;5.30;99.90;;;;;;5009972;28;20042;-74
2022/11/06 04:42:56;;;;;;;4.35;2.63;;;5.30;99.90;;;;;;4993727;28;20038;-74
2022/11/06 04:45:38;;;;;;;4.40;2.28;;;5.20;99.90;;;;;;5008904;28;20034;-74
2022/11/06 04:48:05;;;;;;;3.60;2.47;;;5.20;99.90;;;;;;4995295;28;20026;-74
2022/11/06 04:50:39;;;;;;;6.65;3.13;;;5.20;99.90;;;;;;4994065;28;20029;-74
2022/11/06 04:53:08;;;;;;;7.07;2.85;;;5.20;99.90;;;;;;5009351;28;20089;-74
2022/11/06 04:55:46;;;;;;;5.22;2.88;;;5.20;99.90;;;;;;5009741;28;20030;-74
2022/11/06 04:58:12;;;;;;;6.55;3.13;;;5.10;99.90;;;;;;5009935;28;20029;-74
2022/11/06 05:00:45;;;;;;;9.15;3.60;;;5.10;99.90;;;;;;4995114;28;20026;-74
2022/11/06 05:03:11;;;;;;;6.20;2.90;;;5.10;99.90;;;;;;5009460;28;20030;-74
2022/11/06 05:05:37;;;;;;;4.30;2.33;;;5.20;99.90;;;;;;4993178;28;20034;-74
2022/11/06 05:08:02;;;;;;;5.85;2.13;;;5.20;99.90;;;;;;5009935;28;20393;-74
2022/11/06 05:10:28;;;;;;;5.30;3.47;;;5.20;99.90;;;;;;4994719;28;20142;-74
2022/11/06 05:12:54;;;;;;;7.57;3.00;;;5.20;99.90;;;;;;4995052;28;20052;-74
2022/11/06 05:15:19;;;;;;;6.53;3.00;;;5.20;99.90;;;;;;4994202;28;20045;-73
2022/11/06 05:17:45;;;;;;;7.53;3.05;;;5.30;99.90;;;;;;5009957;28;20035;-73
2022/11/06 05:20:12;;;;;;;3.13;2.58;;;5.40;99.90;;;;;;5009629;28;20355;-74
2022/11/06 05:22:57;;;;;;;7.53;2.97;;;5.50;99.90;;;;;;4993122;28;20037;-74
2022/11/06 05:25:35;;;;;;;4.18;2.47;;;5.60;99.90;;;;;;5007374;28;20026;-73
2022/11/06 05:28:05;;;;;;;8.45;2.83;;;5.50;99.90;;;;;;5009448;28;20482;-74
2022/11/06 05:30:33;;;;;;;6.78;3.35;;;5.50;99.90;;;;;;5009186;28;20041;-74
2022/11/06 05:32:59;;;;;;;4.38;2.45;;;5.50;99.90;;;;;;5009477;28;20525;-74
2022/11/06 05:35:24;;;;;;;5.35;2.80;;;5.40;99.90;;;;;;5009228;28;20026;-74
2022/11/06 05:37:50;;;;;;;3.65;2.28;;;5.30;99.90;;;;;;4994572;28;20097;-74
2022/11/06 05:40:16;;;;;;;6.68;3.22;;;5.20;99.90;;;;;;5009444;28;20027;-74
2022/11/06 05:42:43;;;;;;;7.80;2.80;;;5.20;99.90;;;;;;4994404;28;20393;-74
2022/11/06 05:45:10;;;;;;;4.07;2.58;;;5.20;99.90;;;;;;4992532;28;20035;-74
2022/11/06 05:47:40;;;;;;;6.60;2.72;;;5.20;99.90;;;;;;5009103;28;20117;-74
2022/11/06 05:50:08;;;;;;;7.50;3.88;;;5.20;99.90;;;;;;4994065;28;20069;-73
2022/11/06 05:52:35;;;;;;;5.35;3.70;;;5.20;99.90;;;;;;5008976;28;20379;-74
2022/11/06 05:55:01;;;;;;;6.10;2.97;;;5.10;99.90;;;;;;5008939;28;20063;-75
2022/11/06 05:57:26;;;;;;;4.53;2.67;;;5.10;99.90;;;;;;5008927;28;20061;-73
2022/11/06 05:59:52;;;;;;;8.90;4.03;;;5.00;99.90;;;;;;4993939;28;20041;-74
2022/11/06 06:02:17;;;;;;;9.07;3.92;;;4.90;99.90;;;;;;4993932;28;20057;-73
2022/11/06 06:04:43;;;;;;;9.45;5.05;;;4.80;99.90;;;;;;4993387;28;20046;-74
2022/11/06 06:07:09;;;;;;;5.85;3.20;;;4.80;99.90;;;;;;4993249;28;20031;-73
2022/11/06 06:09:35;;;;;;;7.32;3.92;;;4.70;99.90;;;;;;4993780;28;20040;-75
2022/11/06 06:12:01;;;;;;;9.52;3.33;;;4.70;99.90;;;;;;4992679;28;20386;-74
2022/11/06 06:14:26;;;;;;;6.43;2.97;;;4.60;99.90;;;;;;4991812;28;20041;-73
2022/11/06 06:16:52;;;;;;;6.30;2.97;;;4.50;99.90;;;;;;4993459;28;20034;-73
2022/11/06 06:19:18;;;;;;;14.38;4.15;;;4.50;99.90;;;;;;4993594;28;20041;-73
2022/11/06 06:21:43;;;;;;;4.60;2.65;;;4.40;99.90;;;;;;4993663;28;20486;-73
2022/11/06 06:24:09;;;;;;;10.10;4.40;;;4.40;99.90;;;;;;5008053;28;20063;-73
2022/11/06 06:26:35;;;;;;;8.05;3.92;;;4.30;99.90;;;;;;5008650;28;20029;-74
2022/11/06 06:29:02;;;;;;;7.05;3.75;;;4.30;99.90;;;;;;4993502;28;20033;-74
2022/11/06 06:31:28;;;;;;;4.53;3.00;;;4.30;99.90;;;;;;4993327;28;20030;-74
2022/11/06 06:33:53;;;;;;;6.28;4.25;;;4.20;99.90;;;;;;5008017;28;20034;-74
2022/11/06 06:36:19;;;;;;;5.40;2.88;;;4.20;99.90;;;;;;4993150;28;20049;-74
2022/11/06 06:38:45;;;;;;;8.15;4.28;;;4.20;99.90;;;;;;4993390;28;20038;-73
2022/11/06 06:41:10;;;;;;;6.82;3.78;;;4.10;99.90;;;;;;4992830;28;20479;-72
2022/11/06 06:43:36;;;;;;;7.55;3.42;;;4.10;99.90;;;;;;5007877;28;20069;-73
2022/11/06 06:46:05;;;;;;;4.68;3.30;;;4.10;99.90;;;;;;4991526;28;20080;-73
2022/11/06 06:48:31;;;;;;;6.40;3.17;;;4.30;99.90;;;;;;4993107;28;20030;-74
2022/11/06 06:51:01;;;;;;;8.63;4.20;;;4.20;99.90;;;;;;4993032;28;20026;-73
2022/11/06 06:53:28;;;;;;;5.70;3.47;;;4.30;99.90;;;;;;4991584;28;20022;-72
2022/11/06 06:55:56;;;;;;;15.20;5.25;;;4.30;99.90;;;;;;4992570;28;20124;-73
2022/11/06 06:58:22;;;;;;;7.97;3.80;;;4.30;99.90;;;;;;5006989;28;20028;-73
2022/11/06 07:00:47;;;;;;;10.32;5.03;;;4.40;99.90;;;;;;4992528;28;20034;-74
2022/11/06 07:03:13;;;;;;;5.88;3.83;;;4.40;99.90;;;;;;4992517;28;20598;-74
2022/11/06 07:05:39;;;;;;;6.93;3.55;;;4.40;99.90;;;;;;4991281;28;20027;-74
2022/11/06 07:08:05;;;;;;;6.35;4.32;;;4.40;99.90;;;;;;4992867;28;20070;-73
2022/11/06 07:10:31;;;;;;;19.88;4.35;;;4.40;99.90;;;;;;4991623;28;20031;-74
2022/11/06 07:13:04;;;;;;;6.75;3.00;;;4.40;99.90;;;;;;4991663;28;20030;-75
2022/11/06 07:15:31;;;;;;;8.38;4.43;;;4.40;99.90;;;;;;4991038;28;20034;-74
2022/11/06 07:18:04;;;;;;;20.13;7.15;;;4.50;99.90;;;;;;4991103;28;20101;-74
2022/11/06 07:20:30;;;;;;;7.95;4.40;;;4.60;99.90;;;;;;4992523;28;20030;-73
2022/11/06 07:22:57;;;;;;;7.80;3.80;;;4.60;99.90;;;;;;4991117;28;20037;-74
2022/11/06 07:25:24;;;;;;;15.13;4.40;;;4.60;99.90;;;;;;4992187;28;20396;-74
2022/11/06 07:27:49;;;;;;;9.48;4.55;;;4.50;99.90;;;;;;4991171;28;20474;-74
2022/11/06 07:30:15;;;;;;;9.75;3.45;;;4.50;99.90;;;;;;4992233;28;20036;-74
2022/11/06 07:32:41;;;;;;;9.75;3.63;;;4.50;99.90;;;;;;4992325;28;20034;-73
2022/11/06 07:35:07;;;;;;;12.82;5.55;;;4.40;99.90;;;;;;4991829;28;20034;-73
2022/11/06 07:37:35;;;;;;;5.88;2.92;;;4.50;99.90;;;;;;4992326;28;20136;-74
2022/11/06 07:40:01;;;;;;;7.20;3.95;;;4.50;99.90;;;;;;5007468;28;20026;-74
2022/11/06 07:42:28;;;;;;;7.78;4.32;;;4.60;99.90;;;;;;4992019;28;20383;-74
2022/11/06 07:44:54;;;;;;;5.70;3.20;;;4.60;99.90;;;;;;4991640;28;20045;-74
2022/11/06 07:47:21;;;;;;;8.35;3.95;;;4.70;99.90;;;;;;5006828;28;20034;-74
2022/11/06 07:49:47;;;;;;;8.77;4.32;;;4.80;99.90;;;;;;4992075;28;20081;-74
2022/11/06 07:52:12;;;;;;;9.75;4.28;;;4.90;99.90;;;;;;4992339;28;20030;-74
2022/11/06 07:54:38;;;;;;;7.53;4.05;;;4.90;99.90;;;;;;4990284;28;20034;-74
2022/11/06 07:57:04;;;;;;;7.95;4.22;;;5.10;99.90;;;;;;4991981;28;20038;-74
2022/11/06 07:59:29;;;;;;;13.43;4.55;;;5.20;99.90;;;;;;4991959;28;20046;-74
2022/11/06 08:01:55;;;;;;;7.57;3.58;;;5.30;99.90;;;;;;4991767;28;20031;-68
2022/11/06 08:04:21;;;;;;;6.28;4.15;;;5.30;99.90;;;;;;4992303;28;20113;-76
2022/11/06 08:06:46;;;;;;;9.48;4.32;;;5.40;99.90;;;;;;5006654;28;20029;-75
2022/11/06 08:09:12;;;;;;;7.63;4.75;;;5.50;99.90;;;;;;5002802;28;20466;-77
2022/11/06 08:11:38;;;;;;;8.40;3.95;;;5.60;99.90;;;;;;5001400;28;20034;-77
2022/11/06 08:14:03;;;;;;;10.15;5.20;;;5.70;99.90;;;;;;4991614;28;20494;-76
2022/11/06 08:16:30;;;;;;;9.35;4.85;;;5.80;99.90;;;;;;4991446;28;20113;-75
2022/11/06 08:18:55;;;;;;;12.73;5.25;;;5.90;99.90;;;;;;4992168;28;20057;-77
2022/11/06 08:21:21;;;;;;;10.88;4.85;;;6.00;99.90;;;;;;4992067;28;20121;-77
2022/11/06 08:23:47;;;;;;;7.43;4.07;;;6.10;99.90;;;;;;4997223;23;20047;-74
2022/11/06 08:26:13;;;;;;;11.50;4.20;;;6.30;99.90;;;;;;4972347;28;20027;-74
2022/11/06 08:28:38;;;;;;;8.77;4.63;;;6.30;99.90;;;;;;4972334;28;20031;-74
2022/11/06 08:31:05;;;;;;;12.10;5.35;;;6.40;99.90;;;;;;4970730;28;20031;-75
2022/11/06 08:33:32;;;;;;;10.18;4.07;;;6.50;99.90;;;;;;4972180;28;20019;-73
2022/11/06 08:36:08;;;;;;;11.48;5.57;;;6.60;99.90;;;;;;4971010;28;20034;-75
2022/11/06 08:38:35;;;;;;;6.90;4.13;;;6.70;99.90;;;;;;4971106;28;20383;-74
2022/11/06 08:41:11;;;;;;;8.43;3.58;;;6.70;99.90;;;;;;4969965;28;20027;-74
2022/11/06 08:43:37;;;;;;;22.13;4.88;;;6.90;99.90;;;;;;4980513;28;20109;-76
2022/11/06 08:46:05;;;;;;;11.75;4.72;;;6.90;99.90;;;;;;4983802;28;20027;-76
2022/11/06 08:48:32;;;;;;;6.85;3.67;;;7.00;99.90;;;;;;4971246;28;20035;-76
2022/11/06 08:50:58;;;;;;;10.02;3.75;;;7.00;99.90;;;;;;4972444;28;20027;-77
2022/11/06 08:53:24;;;;;;;5.05;3.60;;;7.10;99.90;;;;;;4972387;28;20130;-78
2022/11/06 08:55:49;;;;;;;8.40;3.83;;;7.20;99.90;;;;;;4972812;28;20035;-80
2022/11/06 08:58:15;;;;;;;5.35;3.03;;;7.20;99.90;;;;;;4972461;28;20120;-79
2022/11/06 09:00:41;;;;;;;6.30;2.88;;;7.20;99.90;;;;;;4973570;28;20034;-80
2022/11/06 09:03:13;;;;;;;8.52;4.07;;;7.30;99.90;;;;;;4972026;28;20034;-77
2022/11/06 09:05:43;;;;;;;7.50;3.97;;;7.40;99.90;;;;;;4971527;28;20513;-80
2022/11/06 09:08:10;;;;;;;7.50;4.22;;;7.40;99.90;;;;;;4973593;28;20034;-82
2022/11/06 09:10:37;;;;;;;11.13;3.72;;;7.60;99.90;;;;;;4973055;28;20138;-81
2022/11/06 09:13:03;;;;;;;5.82;3.70;;;7.70;99.90;;;;;;4964428;28;20046;-83
2022/11/06 09:15:29;;;;;;;5.55;3.67;;;7.90;99.90;;;;;;4970736;28;20030;-80
2022/11/06 09:17:55;;;;;;;4.45;2.58;;;8.00;99.90;;;;;;4971185;28;20114;-77
2022/11/06 09:20:23;;;;;;;5.70;3.33;;;8.10;99.90;;;;;;4972113;28;20110;-78
2022/11/06 09:22:49;;;;;;;6.95;2.92;;;8.30;99.90;;;;;;4973788;28;20058;-75
2022/11/06 09:25:15;;;;;;;4.47;3.25;;;8.50;99.90;;;;;;4975236;28;20037;-77
2022/11/06 09:27:51;;;;;;;6.13;3.67;;;8.50;99.90;;;;;;4990478;28;20023;-76
2022/11/06 09:30:20;;;;;;;6.05;3.17;;;8.50;99.90;;;;;;4990512;28;20026;-78
2022/11/06 09:32:56;;;;;;;5.32;3.00;;;8.70;99.90;;;;;;4975688;28;20026;-77
2022/11/06 09:35:25;;;;;;;5.35;2.55;;;8.80;99.90;;;;;;4975099;28;20022;-76
2022/11/06 09:37:51;;;;;;;6.18;3.60;;;9.00;99.90;;;;;;4974184;28;20482;-76
2022/11/06 09:40:25;;;;;;;5.60;2.85;;;9.10;99.90;;;;;;4975283;28;20113;-76
2022/11/06 09:43:13;;;;;;;5.40;2.80;;;9.30;99.90;;;;;;4975305;28;20394;-78
2022/11/06 09:45:40;;;;;;;9.00;4.13;;;9.50;99.90;;;;;;4974664;28;20035;-77
2022/11/06 09:48:08;;;;;;;6.55;2.55;;;9.90;99.90;;;;;;4990228;28;20624;-83
2022/11/06 09:50:46;;;;;;;6.82;2.85;;;10.40;99.90;;;;;;4975944;28;20034;-83
2022/11/06 09:53:45;;;;;;;4.95;2.95;;;10.50;99.90;;;;;;4990012;28;20030;-83
2022/11/06 09:56:13;;;;;;;4.95;3.10;;;10.60;99.90;;;;;;4988140;28;20031;-80
2022/11/06 09:58:42;;;;;;;7.43;2.90;;;10.60;99.90;;;;;;4990042;28;20122;-83
2022/11/06 10:01:53;;;;;;;5.90;2.60;;;10.70;99.90;;;;;;4990338;28;20489;-79
2022/11/06 10:04:51;;;;;;;3.20;1.93;;;10.70;99.90;;;;;;4986810;28;20038;-79
2022/11/06 10:07:40;;;;;;;6.43;2.15;;;10.70;99.90;;;;;;4976056;28;20043;-79
2022/11/06 10:10:14;;;;;;;4.43;2.10;;;10.70;99.90;;;;;;4954144;29;20456;-79
2022/11/06 10:13:06;;;;;;;4.63;2.42;;;11.10;99.90;;;;;;4963486;28;20023;-78
2022/11/06 10:15:42;;;;;;;5.18;2.53;;;11.00;99.90;;;;;;4988270;28;20109;-78
2022/11/06 10:18:24;;;;;;;7.10;2.00;;;11.10;99.90;;;;;;4974500;28;20031;-81
2022/11/06 10:20:53;;;;;;;4.70;2.90;;;11.20;99.90;;;;;;4988408;28;20038;-80
2022/11/06 10:23:50;;;;;;;4.32;2.10;;;11.10;99.90;;;;;;4973951;28;20427;-81
2022/11/06 10:26:39;;;;;;;11.93;2.33;;;11.10;99.90;;;;;;4972239;28;20049;-80
2022/11/06 10:29:42;;;;;;;4.55;2.22;;;11.10;99.90;;;;;;4988044;28;20493;-79
2022/11/06 10:32:47;;;;;;;4.38;1.92;;;11.40;99.90;;;;;;4972460;28;20039;-81
2022/11/06 10:35:29;;;;;;;6.10;1.85;;;11.60;99.90;;;;;;4973615;28;20513;-78
2022/11/06 10:38:42;;;;;;;3.13;1.25;;;11.70;99.90;;;;;;4972810;28;20066;-75
2022/11/06 10:41:27;;;;;;;5.00;2.17;;;11.40;99.90;;;;;;4954044;29;20039;-78
2022/11/06 10:44:01;;;;;;;4.63;1.98;;;11.60;99.90;;;;;;4954154;28;20501;-78
2022/11/06 10:46:42;;;;;;;3.20;1.85;;;11.50;99.90;;;;;;4953996;28;20614;-78
2022/11/06 10:49:39;;;;;;;4.63;2.53;;;11.60;99.90;;;;;;4953101;29;20031;-77
2022/11/06 10:52:36;;;;;;;3.63;1.80;;;12.00;99.90;;;;;;4954216;28;20447;-78
2022/11/06 10:56:12;;;;;;;3.83;1.98;;;12.60;99.90;;;;;;4952766;28;20034;-82
2022/11/06 10:58:38;;;;;;;4.32;2.42;;;13.60;99.90;;;;;;4920651;28;20039;-76
2022/11/06 11:01:07;;;;;;;4.38;2.10;;;13.90;99.90;;;;;;4952862;29;20511;-76
2022/11/06 11:03:39;;;;;;;4.47;2.33;;;14.00;99.90;;;;;;4952523;28;20035;-80
2022/11/06 11:06:06;;;;;;;3.88;2.05;;;14.60;99.90;;;;;;4972006;28;20038;-79
2022/11/06 11:08:42;;;;;;;3.17;2.05;;;14.00;99.90;;;;;;4973196;28;20048;-79
2022/11/06 11:11:16;;;;;;;3.25;1.80;;;13.70;99.90;;;;;;4972232;28;20129;-80
2022/11/06 11:14:00;;;;;;;3.35;1.73;;;14.70;99.90;;;;;;4972872;28;20047;-79
2022/11/06 11:16:33;;;;;;;3.67;1.35;;;14.10;99.90;;;;;;4973201;28;20528;-75
2022/11/06 11:19:25;;;;;;;5.20;1.58;;;15.00;99.90;;;;;;4972703;28;20050;-75
2022/11/06 11:22:04;;;;;;;5.00;1.88;;;14.70;99.90;;;;;;4972937;28;20031;-75
2022/11/06 11:24:31;;;;;;;1.85;1.15;;;13.90;99.90;;;;;;4968165;28;20123;-76
2022/11/06 11:27:04;;;;;;;4.43;1.70;;;15.00;99.90;;;;;;4972371;28;20035;-75
2022/11/06 11:29:46;;;;;;;2.60;1.45;;;15.20;99.90;;;;;;4968539;28;20122;-75
2022/11/06 11:32:17;;;;;;;3.08;1.73;;;14.50;99.90;;;;;;4969240;28;20034;-74
2022/11/06 11:34:47;;;;;;;3.03;1.63;;;14.10;99.90;;;;;;4970826;28;20105;-74
2022/11/06 11:37:28;;;;;;;3.72;1.60;;;14.70;99.90;;;;;;4971681;28;20031;-79
2022/11/06 11:39:55;;;;;;;;;;;15.30;99.90;;;;;;4972338;28;20031;-80
2022/11/06 11:42:30;;;;;;;4.40;1.27;;;16.30;99.50;;;;;;4973370;28;19958;-77
2022/11/06 11:45:08;;;;;;;3.72;1.63;;;15.40;98.50;;;;;;4971338;28;20473;-77
2022/11/06 11:47:36;;;;;;;4.63;1.67;;;14.40;99.90;;;;;;4972527;28;20077;-78
2022/11/06 11:50:20;;;;;;;3.25;1.33;;;14.10;99.90;;;;;;4971021;28;20058;-75
2022/11/06 11:52:50;;;;;;;3.45;1.27;;;13.70;99.90;;;;;;4969108;28;20085;-75
2022/11/06 11:55:19;;;;;;;5.90;1.35;;;13.90;99.90;;;;;;4967514;28;20035;-80
2022/11/06 11:57:50;;;;;;;8.52;1.77;;;13.80;99.90;;;;;;4953000;28;20031;-71
2022/11/06 12:00:18;;;;;;;4.00;1.83;;;14.30;99.90;;;;;;4967569;28;20027;-75
2022/11/06 12:02:58;;;;;;;2.35;1.20;;;14.70;99.90;;;;;;4957624;28;20043;-84
2022/11/06 12:05:38;;;;;;;3.97;1.70;;;14.70;99.90;;;;;;4970497;28;20070;-79
2022/11/06 12:08:11;;;;;;;2.35;1.55;;;13.70;99.90;;;;;;4994470;28;20043;-76
2022/11/06 12:10:41;;;;;;;3.50;1.75;;;13.00;99.90;;;;;;4974035;28;20058;-77
2022/11/06 12:13:19;;;;;;;2.65;1.58;;;12.60;99.90;;;;;;4986785;28;20054;-81
2022/11/06 12:16:07;;;;;;;2.08;1.25;;;12.90;99.90;;;;;;4967843;28;20041;-77
2022/11/06 12:18:46;;;;;;;4.93;1.30;;;12.60;99.90;;;;;;4970849;28;20105;-75
2022/11/06 12:21:18;;;;;;;3.13;1.25;;;12.40;99.90;;;;;;4970837;28;20470;-75
2022/11/06 12:24:27;;;;;;;2.97;1.85;;;12.10;99.90;;;;;;4984271;23;20097;-76
2022/11/06 12:27:09;;;;;;;3.00;1.25;;;12.30;99.90;;;;;;4989815;28;20034;-76
2022/11/06 12:29:49;;;;;;;2.90;1.65;;;12.40;99.90;;;;;;4974381;28;20027;-78
2022/11/06 12:32:52;;;;;;;2.78;1.33;;;12.50;99.90;;;;;;4990051;28;20466;-75
2022/11/06 12:35:44;;;;;;;2.63;1.45;;;12.30;99.90;;;;;;4971370;28;20042;-76
2022/11/06 12:38:59;;;;;;;3.13;1.40;;;12.30;99.90;;;;;;4970847;28;20031;-77
2022/11/06 12:41:39;;;;;;;3.75;1.88;;;12.30;99.90;;;;;;4949849;29;20046;-73
2022/11/06 12:44:11;;;;;;;2.08;1.23;;;12.40;99.90;;;;;;4970855;28;20454;-76
2022/11/06 12:47:31;;;;;;;3.03;1.50;;;12.40;99.90;;;;;;4970494;28;20066;-75
2022/11/06 12:50:25;;;;;;;2.17;1.15;;;12.50;99.90;;;;;;4968557;28;20125;-74
2022/11/06 12:53:18;;;;;;;2.55;1.13;;;12.30;99.90;;;;;;4971364;28;20093;-74
2022/11/06 12:56:04;;;;;;;3.70;1.73;;;12.20;99.90;;;;;;4971595;28;20035;-76
2022/11/06 12:58:59;;;;;;;2.50;1.38;;;12.20;99.90;;;;;;4975937;28;20093;-80
2022/11/06 13:01:43;;;;;;;3.58;1.63;;;12.10;99.90;;;;;;4974614;28;20031;-88
2022/11/06 13:04:36;;;;;;;3.65;1.98;;;12.00;99.90;;;;;;4974930;28;20573;-76
2022/11/06 13:08:06;;;;;;;2.33;1.27;;;11.80;99.90;;;;;;4974225;28;20031;-76
2022/11/06 13:10:58;;;;;;;4.00;1.75;;;11.80;99.90;;;;;;4963001;28;20046;-73
2022/11/06 13:13:47;;;;;;;3.28;1.73;;;11.70;99.90;;;;;;4975027;28;20061;-73
2022/11/06 13:16:23;;;;;;;3.22;1.60;;;11.70;99.90;;;;;;4975566;28;20110;-74
2022/11/06 13:18:58;;;;;;;3.03;1.33;;;11.60;99.90;;;;;;4975380;28;20081;-76
2022/11/06 13:21:51;;;;;;;2.50;1.10;;;11.50;99.90;;;;;;4972182;28;20085;-82
2022/11/06 13:24:45;;;;;;;3.17;1.80;;;11.40;99.90;;;;;;4974508;28;20039;-80
2022/11/06 13:27:26;;;;;;;4.40;2.08;;;11.50;99.90;;;;;;4966998;28;20046;-75
2022/11/06 13:30:01;;;;;;;2.35;1.35;;;11.40;99.90;;;;;;4975595;28;20039;-77
2022/11/06 13:32:31;;;;;;;3.10;1.20;;;11.40;99.90;;;;;;4973765;28;20030;-78
2022/11/06 13:34:59;;;;;;;2.92;1.48;;;11.30;99.90;;;;;;4973525;28;20027;-73
2022/11/06 13:37:52;;;;;;;4.30;1.55;;;11.20;99.90;;;;;;4974118;28;20027;-76
2022/11/06 13:40:36;;;;;;;1.98;1.10;;;11.30;99.90;;;;;;4989442;28;20057;-83
2022/11/06 13:43:15;;;;;;;3.50;1.73;;;11.20;99.90;;;;;;4973961;28;20027;-82
2022/11/06 13:46:13;;;;;;;4.78;1.80;;;11.20;99.90;;;;;;4973163;28;20031;-79